Time;durP1;ratioP1;P1;durP2;ratioP2;P2;SDS_P1;SDS_P2;PMS_P1;PMS_P2;Temp;Humidity;BMP_temperature;BMP_pressure;BME280_temperature;BME280_humidity;BME280_pressure;Samples;Min_cycle;Max_cycle;Signal;HPM_P1;HPM_P2
2023/03/05 00:00:37;;;;;;;16.38;11.05;;;;;;;3.58;100.00;101684.72;5084996;28;20044;-78
2023/03/05 00:03:03;;;;;;;14.52;11.55;;;;;;;3.62;100.00;101680.16;5060135;28;20044;-78
2023/03/05 00:05:28;;;;;;;12.65;11.27;;;;;;;3.60;100.00;101672.41;5077322;28;20074;-78
2023/03/05 00:07:54;;;;;;;13.60;10.52;;;;;;;3.62;100.00;101672.31;5074820;28;20036;-78
2023/03/05 00:10:20;;;;;;;14.70;11.10;;;;;;;3.60;100.00;101661.94;5079155;28;20038;-78
2023/03/05 00:12:46;;;;;;;12.55;11.18;;;;;;;3.58;100.00;101656.78;5078487;28;20054;-78
2023/03/05 00:15:12;;;;;;;12.68;10.20;;;;;;;3.59;100.00;101655.88;5065125;28;20064;-78
2023/03/05 00:17:38;;;;;;;13.90;10.20;;;;;;;3.64;100.00;101655.66;5079426;28;20488;-78
2023/03/05 00:20:04;;;;;;;17.05;11.90;;;;;;;3.65;100.00;101667.81;5081832;28;20126;-78
2023/03/05 00:22:29;;;;;;;12.73;10.93;;;;;;;3.65;100.00;101656.50;5079820;28;20353;-78
2023/03/05 00:24:55;;;;;;;14.27;10.63;;;;;;;3.59;100.00;101653.25;5086989;28;20035;-78
2023/03/05 00:27:21;;;;;;;15.38;11.48;;;;;;;3.62;100.00;101640.94;5086804;28;20025;-78
2023/03/05 00:29:47;;;;;;;14.02;10.15;;;;;;;3.64;100.00;101628.66;5079004;28;20036;-78
2023/03/05 00:32:13;;;;;;;14.85;11.07;;;;;;;3.67;100.00;101621.53;5084850;28;20032;-78
2023/03/05 00:34:39;;;;;;;12.73;10.73;;;;;;;3.63;100.00;101621.75;5065976;28;20104;-78
2023/03/05 00:37:04;;;;;;;14.98;11.73;;;;;;;3.57;100.00;101615.88;5082158;28;20036;-78
2023/03/05 00:39:30;;;;;;;17.08;11.27;;;;;;;3.56;100.00;101626.41;5089253;27;20047;-78
2023/03/05 00:41:56;;;;;;;15.45;11.18;;;;;;;3.57;100.00;101634.16;5080368;28;20036;-78
2023/03/05 00:44:22;;;;;;;17.20;10.90;;;;;;;3.58;100.00;101638.47;5067473;28;20081;-78
2023/03/05 00:46:49;;;;;;;14.95;11.30;;;;;;;3.55;100.00;101635.16;5074334;28;20554;-78
2023/03/05 00:49:15;;;;;;;23.77;14.93;;;;;;;3.52;100.00;101649.22;5075709;28;20040;-78
2023/03/05 00:51:41;;;;;;;20.08;13.50;;;;;;;3.49;100.00;101648.53;5082504;28;20062;-78
2023/03/05 00:54:07;;;;;;;16.98;12.25;;;;;;;3.46;100.00;101646.88;5085612;28;20039;-78
2023/03/05 00:56:33;;;;;;;16.35;11.63;;;;;;;3.49;100.00;101640.66;5083198;28;20036;-78
2023/03/05 00:58:59;;;;;;;16.48;12.57;;;;;;;3.46;100.00;101649.47;5082072;28;20145;-78
2023/03/05 01:01:25;;;;;;;19.30;13.18;;;;;;;3.45;100.00;101647.78;5044656;28;20059;-78
2023/03/05 01:03:51;;;;;;;22.85;14.82;;;;;;;3.43;100.00;101636.56;5086075;28;20044;-78
2023/03/05 01:06:17;;;;;;;40.35;21.20;;;;;;;3.46;100.00;101654.72;5091063;28;20101;-78
2023/03/05 01:08:44;;;;;;;40.90;22.20;;;;;;;3.42;100.00;101650.53;5078373;28;20040;-78
2023/03/05 01:11:10;;;;;;;29.73;18.63;;;;;;;3.45;100.00;101646.03;5051390;28;20424;-78
2023/03/05 01:13:37;;;;;;;24.52;14.90;;;;;;;3.46;100.00;101644.25;5065203;28;20024;-78
2023/03/05 01:16:03;;;;;;;24.08;16.35;;;;;;;3.45;100.00;101640.81;5080028;28;20039;-78
2023/03/05 01:18:29;;;;;;;19.13;13.18;;;;;;;3.42;100.00;101640.94;5075805;28;20090;-78
2023/03/05 01:20:55;;;;;;;17.35;12.98;;;;;;;3.46;100.00;101646.88;5080746;28;20035;-78
2023/03/05 01:23:21;;;;;;;22.13;14.13;;;;;;;3.48;100.00;101645.03;5068395;28;20040;-77
2023/03/05 01:25:57;;;;;;;20.60;14.75;;;;;;;3.54;100.00;101631.69;5089250;28;20062;-78
2023/03/05 01:28:24;;;;;;;17.50;12.73;;;;;;;3.53;100.00;101623.91;5086218;28;20040;-78
2023/03/05 01:30:50;;;;;;;18.55;13.40;;;;;;;3.56;100.00;101623.78;5082777;28;20043;-78
2023/03/05 01:33:16;;;;;;;29.85;16.45;;;;;;;3.55;100.00;101619.47;5085546;28;20031;-78
2023/03/05 01:35:46;;;;;;;41.22;20.80;;;;;;;3.57;100.00;101615.00;5083048;28;20036;-78
2023/03/05 01:38:12;;;;;;;35.67;20.27;;;;;;;3.53;100.00;101608.25;5087820;28;20043;-78
2023/03/05 01:40:40;;;;;;;42.30;20.35;;;;;;;3.58;100.00;101606.28;5083519;28;20527;-78
2023/03/05 01:43:12;;;;;;;18.77;13.85;;;;;;;3.60;100.00;101599.19;5060091;28;20032;-78
2023/03/05 01:46:10;;;;;;;18.35;13.38;;;;;;;3.59;100.00;101594.88;5083373;28;20044;-78
2023/03/05 01:48:36;;;;;;;15.15;11.70;;;;;;;3.52;100.00;101596.91;5048063;28;20036;-78
2023/03/05 01:51:02;;;;;;;17.27;11.80;;;;;;;3.48;100.00;101584.91;5079689;28;20027;-78
2023/03/05 01:53:29;;;;;;;15.15;11.30;;;;;;;3.46;100.00;101592.84;5087011;28;20085;-78
2023/03/05 01:55:54;;;;;;;13.15;11.63;;;;;;;3.42;100.00;101590.44;5086162;28;20031;-78
2023/03/05 01:58:20;;;;;;;15.75;11.43;;;;;;;3.41;100.00;101591.34;5087231;28;20043;-78
2023/03/05 02:00:49;;;;;;;14.70;12.20;;;;;;;3.41;100.00;101588.75;5087375;28;20092;-78
2023/03/05 02:03:15;;;;;;;15.98;11.55;;;;;;;3.39;100.00;101595.78;5065984;28;20385;-78
2023/03/05 02:05:44;;;;;;;16.95;11.70;;;;;;;3.35;100.00;101592.47;5084004;28;20476;-78
2023/03/05 02:08:16;;;;;;;16.38;11.48;;;;;;;3.38;100.00;101587.09;5057591;28;20145;-78
2023/03/05 02:10:49;;;;;;;21.13;12.82;;;;;;;3.38;100.00;101581.88;5075684;28;20028;-78
2023/03/05 02:13:22;;;;;;;14.90;11.48;;;;;;;3.37;100.00;101574.97;5086150;28;20494;-77
2023/03/05 02:15:49;;;;;;;17.08;12.05;;;;;;;3.28;100.00;101585.81;5078212;28;20111;-77
2023/03/05 02:18:16;;;;;;;14.95;12.05;;;;;;;3.28;100.00;101583.22;5084848;28;20028;-78
2023/03/05 02:20:46;;;;;;;14.25;11.73;;;;;;;3.30;100.00;101574.38;5068946;28;20112;-78
2023/03/05 02:23:13;;;;;;;16.33;13.00;;;;;;;3.26;100.00;101562.38;5093124;28;20024;-78
2023/03/05 02:25:39;;;;;;;15.80;12.35;;;;;;;3.27;100.00;101564.06;5086953;28;20038;-78
2023/03/05 02:28:13;;;;;;;21.83;13.57;;;;;;;3.28;100.00;101560.53;5092066;28;20446;-78
2023/03/05 02:30:38;;;;;;;14.63;12.95;;;;;;;3.29;100.00;101554.41;5069564;28;20040;-78
2023/03/05 02:33:04;;;;;;;14.13;12.63;;;;;;;3.33;100.00;101549.84;5092918;28;20431;-77
2023/03/05 02:35:31;;;;;;;16.52;11.73;;;;;;;3.33;100.00;101544.63;5076447;28;20032;-78
2023/03/05 02:37:56;;;;;;;14.23;11.77;;;;;;;3.32;100.00;101545.56;5072016;28;20290;-78
2023/03/05 02:40:23;;;;;;;15.20;11.77;;;;;;;3.34;100.00;101541.13;5089822;28;20119;-77
2023/03/05 02:42:48;;;;;;;13.20;11.77;;;;;;;3.34;100.00;101530.66;5092857;28;20039;-78
2023/03/05 02:45:15;;;;;;;21.08;11.00;;;;;;;3.34;100.00;101525.44;5064400;28;20086;-78
2023/03/05 02:47:41;;;;;;;16.73;12.40;;;;;;;3.31;100.00;101525.59;5093179;28;20024;-78
2023/03/05 02:50:09;;;;;;;15.15;11.88;;;;;;;3.29;100.00;101528.25;5052971;28;20038;-78
2023/03/05 02:52:36;;;;;;;20.85;15.88;;;;;;;3.25;100.00;101526.69;5072450;28;20753;-78
2023/03/05 02:55:04;;;;;;;18.10;13.65;;;;;;;3.24;100.00;101509.31;5101320;28;20036;-78
2023/03/05 02:57:30;;;;;;;17.70;12.25;;;;;;;3.24;100.00;101509.31;5090846;28;20103;-78
2023/03/05 02:59:56;;;;;;;14.55;12.70;;;;;;;3.26;100.00;101512.72;5072016;28;20127;-78
2023/03/05 03:02:22;;;;;;;17.15;13.52;;;;;;;3.27;100.00;101505.72;5086867;28;20036;-78
2023/03/05 03:04:48;;;;;;;19.52;13.68;;;;;;;3.30;100.00;101506.44;5077491;28;20094;-78
2023/03/05 03:07:15;;;;;;;22.70;13.45;;;;;;;3.28;100.00;101510.03;5071065;28;20032;-78
2023/03/05 03:09:42;;;;;;;14.70;12.10;;;;;;;3.26;100.00;101502.28;5089414;28;20036;-78
2023/03/05 03:12:09;;;;;;;15.25;13.27;;;;;;;3.30;100.00;101495.13;5086071;28;20110;-77
2023/03/05 03:14:38;;;;;;;14.82;11.73;;;;;;;3.32;100.00;101488.94;5090168;28;20035;-78
2023/03/05 03:17:17;;;;;;;16.30;13.15;;;;;;;3.33;100.00;101482.78;5091892;28;20504;-78
2023/03/05 03:19:44;;;;;;;17.05;12.38;;;;;;;3.32;100.00;101486.31;5082045;28;20135;-78
2023/03/05 03:22:12;;;;;;;14.95;12.15;;;;;;;3.38;100.00;101481.72;5087971;28;20032;-78
2023/03/05 03:24:40;;;;;;;15.15;11.18;;;;;;;3.39;100.00;101475.56;5091360;28;20590;-77
2023/03/05 03:27:06;;;;;;;13.70;12.07;;;;;;;3.40;100.00;101469.41;5091533;28;20039;-78
2023/03/05 03:29:32;;;;;;;14.13;12.18;;;;;;;3.40;100.00;101466.81;5088760;28;20103;-77
2023/03/05 03:31:58;;;;;;;15.23;12.30;;;;;;;3.34;100.00;101453.09;5088950;28;20064;-77
2023/03/05 03:34:24;;;;;;;16.52;12.43;;;;;;;3.28;100.00;101456.00;5076529;28;20066;-77
2023/03/05 03:36:51;;;;;;;15.35;12.00;;;;;;;3.25;100.00;101455.31;5090817;28;20115;-78
2023/03/05 03:39:18;;;;;;;15.23;11.35;;;;;;;3.21;100.00;101445.00;5055837;28;20484;-78
2023/03/05 03:41:46;;;;;;;18.02;12.75;;;;;;;3.21;100.00;101438.91;5061528;28;20047;-78
2023/03/05 03:44:13;;;;;;;14.57;12.20;;;;;;;3.26;100.00;101441.31;5082706;28;20081;-78
2023/03/05 03:46:39;;;;;;;19.33;12.27;;;;;;;3.29;100.00;101442.03;5068968;28;21699;-78
2023/03/05 03:49:09;;;;;;;13.65;12.15;;;;;;;3.31;100.00;101440.16;5071307;28;20039;-78
2023/03/05 03:51:35;;;;;;;14.40;11.90;;;;;;;3.34;100.00;101428.75;5092239;28;20032;-77
2023/03/05 03:54:02;;;;;;;17.60;13.15;;;;;;;3.32;100.00;101418.38;5090042;28;20579;-78
2023/03/05 03:56:27;;;;;;;14.85;12.30;;;;;;;3.26;100.00;101416.03;5091898;28;20043;-78
2023/03/05 03:58:53;;;;;;;16.38;12.70;;;;;;;3.23;100.00;101410.97;5082530;28;20032;-77
2023/03/05 04:01:20;;;;;;;15.57;12.80;;;;;;;3.19;100.00;101401.56;5090696;28;20028;-78
2023/03/05 04:03:45;;;;;;;18.35;13.15;;;;;;;3.17;100.00;101406.03;5090542;28;20051;-78
2023/03/05 04:06:12;;;;;;;14.85;12.65;;;;;;;3.19;100.00;101398.94;5074838;28;20036;-77
2023/03/05 04:08:38;;;;;;;17.15;12.45;;;;;;;3.21;100.00;101394.50;5081720;28;20040;-78
2023/03/05 04:11:05;;;;;;;15.65;12.05;;;;;;;3.26;100.00;101394.28;5092774;28;20066;-77
2023/03/05 04:13:31;;;;;;;17.10;12.63;;;;;;;3.26;100.00;101387.31;5063179;28;20452;-78
2023/03/05 04:15:57;;;;;;;17.67;12.75;;;;;;;3.24;100.00;101389.13;5063554;28;20036;-78
2023/03/05 04:18:23;;;;;;;14.00;11.40;;;;;;;3.25;100.00;101388.19;5083429;28;20089;-77
2023/03/05 04:20:49;;;;;;;14.88;13.15;;;;;;;3.22;100.00;101386.59;5090249;28;20443;-77
2023/03/05 04:23:15;;;;;;;16.38;12.95;;;;;;;3.19;100.00;101372.81;5089046;28;20085;-78
2023/03/05 04:25:41;;;;;;;14.95;12.18;;;;;;;3.16;100.00;101367.75;5091665;28;20059;-78
2023/03/05 04:28:10;;;;;;;16.33;12.27;;;;;;;3.15;100.00;101368.66;5084183;28;20490;-78
2023/03/05 04:30:35;;;;;;;13.00;11.60;;;;;;;3.10;100.00;101361.91;5085301;28;20055;-77
2023/03/05 04:33:02;;;;;;;16.23;12.93;;;;;;;3.09;100.00;101361.97;5064932;28;20040;-76
2023/03/05 04:35:27;;;;;;;17.67;12.85;;;;;;;3.04;100.00;101362.16;5087390;28;20056;-76
2023/03/05 04:37:53;;;;;;;17.85;12.02;;;;;;;3.02;100.00;101361.41;5077098;28;20036;-78
2023/03/05 04:40:20;;;;;;;16.33;12.40;;;;;;;3.01;100.00;101356.25;5086041;28;20031;-78
2023/03/05 04:42:45;;;;;;;13.85;11.77;;;;;;;3.04;100.00;101362.16;5087524;28;20029;-78
2023/03/05 04:45:11;;;;;;;15.10;11.65;;;;;;;3.05;100.00;101361.28;5087977;28;20027;-78
2023/03/05 04:47:37;;;;;;;14.88;11.75;;;;;;;3.08;100.00;101363.75;5063960;28;20048;-77
2023/03/05 04:50:05;;;;;;;19.33;11.50;;;;;;;3.14;100.00;101362.59;5061404;28;20092;-78
2023/03/05 04:52:31;;;;;;;15.00;11.80;;;;;;;3.10;100.00;101359.28;5090506;28;20081;-78
2023/03/05 04:54:57;;;;;;;14.55;11.60;;;;;;;3.13;100.00;101360.91;5079568;28;20032;-78
2023/03/05 04:57:23;;;;;;;13.60;10.75;;;;;;;3.13;100.00;101354.81;5074438;28;20036;-78
2023/03/05 04:59:49;;;;;;;14.48;10.65;;;;;;;3.14;100.00;101352.13;5088783;28;20035;-78
2023/03/05 05:02:15;;;;;;;13.60;11.10;;;;;;;3.12;100.00;101346.16;5062546;28;20055;-78
2023/03/05 05:04:43;;;;;;;16.92;11.63;;;;;;;3.12;100.00;101346.16;5077315;28;20035;-78
2023/03/05 05:07:10;;;;;;;20.92;13.18;;;;;;;3.05;100.00;101353.44;5086705;28;20038;-78
2023/03/05 05:09:40;;;;;;;16.67;11.50;;;;;;;3.03;100.00;101342.22;5089092;28;20039;-77
2023/03/05 05:12:06;;;;;;;14.50;11.80;;;;;;;3.04;100.00;101348.28;5090345;28;20037;-77
2023/03/05 05:14:32;;;;;;;14.88;11.45;;;;;;;3.07;100.00;101342.91;5087937;28;20036;-78
2023/03/05 05:16:59;;;;;;;14.98;12.25;;;;;;;3.08;100.00;101335.00;5086933;28;20531;-78
2023/03/05 05:19:24;;;;;;;15.23;11.80;;;;;;;3.14;100.00;101336.47;5081874;28;20085;-78
2023/03/05 05:21:50;;;;;;;15.93;11.63;;;;;;;3.16;100.00;101333.78;5088220;28;20036;-78
2023/03/05 05:24:16;;;;;;;13.48;10.90;;;;;;;3.16;100.00;101331.16;5054749;28;20494;-77
2023/03/05 05:26:42;;;;;;;14.13;11.48;;;;;;;3.20;100.00;101330.13;5088978;28;20400;-78
2023/03/05 05:29:08;;;;;;;15.20;11.77;;;;;;;3.23;100.00;101330.78;5084215;28;20039;-77
2023/03/05 05:31:33;;;;;;;15.55;11.60;;;;;;;3.21;100.00;101329.19;5083074;28;20116;-78
2023/03/05 05:33:59;;;;;;;16.15;11.27;;;;;;;3.16;100.00;101326.78;5068541;28;20078;-78
2023/03/05 05:36:25;;;;;;;15.63;11.52;;;;;;;3.14;100.00;101322.56;5085323;28;20563;-78
2023/03/05 05:38:51;;;;;;;14.07;11.30;;;;;;;3.11;100.00;101320.94;5061894;28;20373;-78
2023/03/05 05:41:17;;;;;;;15.50;11.52;;;;;;;3.10;100.00;101327.94;5006085;28;20032;-78
2023/03/05 05:43:44;;;;;;;17.77;11.65;;;;;;;3.06;100.00;101318.53;5080168;28;20055;-77
2023/03/05 05:46:15;;;;;;;15.27;11.82;;;;;;;3.12;100.00;101314.81;5089379;28;20144;-77
2023/03/05 05:48:43;;;;;;;13.70;10.73;;;;;;;3.14;100.00;101318.19;5075028;28;20024;-78
2023/03/05 05:51:14;;;;;;;13.77;11.18;;;;;;;3.16;100.00;101315.50;5083652;28;20560;-78
2023/03/05 05:53:41;;;;;;;16.83;11.63;;;;;;;3.15;100.00;101314.66;5090638;28;20040;-78
2023/03/05 05:56:09;;;;;;;14.07;11.05;;;;;;;3.16;100.00;101316.34;5066873;28;20470;-77
2023/03/05 05:58:37;;;;;;;17.17;10.98;;;;;;;3.18;100.00;101314.50;5090639;28;20035;-78
2023/03/05 06:01:15;;;;;;;15.60;12.02;;;;;;;3.25;100.00;101311.59;5074928;28;20391;-78
2023/03/05 06:03:41;;;;;;;16.77;11.93;;;;;;;3.25;100.00;101304.59;5086059;28;20496;-78
2023/03/05 06:06:11;;;;;;;19.95;12.45;;;;;;;3.30;100.00;101307.84;5088186;28;20046;-78
2023/03/05 06:08:37;;;;;;;15.27;11.68;;;;;;;3.25;100.00;101295.94;5092331;28;20101;-78
2023/03/05 06:11:04;;;;;;;13.23;11.30;;;;;;;3.22;100.00;101300.38;5085248;28;20028;-78
2023/03/05 06:13:30;;;;;;;13.32;11.82;;;;;;;3.20;100.00;101298.75;5105069;28;20071;-77
2023/03/05 06:16:01;;;;;;;18.80;12.05;;;;;;;3.22;100.00;101304.75;5090018;28;20512;-78
2023/03/05 06:18:27;;;;;;;16.38;11.85;;;;;;;3.23;100.00;101298.63;5090537;28;20032;-77
2023/03/05 06:20:58;;;;;;;14.63;12.13;;;;;;;3.26;100.00;101295.84;5081369;28;20036;-77
2023/03/05 06:23:25;;;;;;;15.35;11.77;;;;;;;3.23;100.00;101299.44;5089591;28;20040;-78
2023/03/05 06:25:51;;;;;;;23.30;12.27;;;;;;;3.21;100.00;101309.13;5091966;28;20426;-77
2023/03/05 06:28:17;;;;;;;13.57;11.82;;;;;;;3.23;100.00;101301.22;5092159;28;20082;-78
2023/03/05 06:30:43;;;;;;;15.77;11.30;;;;;;;3.25;100.00;101293.31;5093133;28;20085;-78
2023/03/05 06:33:09;;;;;;;16.35;12.07;;;;;;;3.23;100.00;101296.81;5071848;28;20568;-78
2023/03/05 06:35:38;;;;;;;15.07;12.18;;;;;;;3.26;100.00;101293.25;5093387;28;20034;-78
2023/03/05 06:38:05;;;;;;;15.85;12.60;;;;;;;3.22;100.00;101295.16;5068906;28;20116;-78
2023/03/05 06:40:31;;;;;;;18.25;13.70;;;;;;;3.16;100.00;101298.06;5065009;28;20028;-78
2023/03/05 06:42:57;;;;;;;13.82;12.07;;;;;;;3.16;100.00;101299.81;5086427;28;20039;-78
2023/03/05 06:45:23;;;;;;;14.57;11.95;;;;;;;3.17;100.00;101288.47;5070291;28;20032;-78
2023/03/05 06:47:48;;;;;;;14.43;10.50;;;;;;;3.22;100.00;101295.16;5066419;28;20032;-77
2023/03/05 06:50:14;;;;;;;15.93;11.70;;;;;;;3.23;100.00;101301.22;5081928;28;20024;-78
2023/03/05 06:52:40;;;;;;;15.73;11.80;;;;;;;3.22;100.00;101302.97;5085392;28;20040;-78
2023/03/05 06:55:07;;;;;;;17.95;12.38;;;;;;;3.27;100.00;101294.06;5091060;28;20059;-78
2023/03/05 06:57:33;;;;;;;18.83;12.93;;;;;;;3.27;100.00;101289.69;5089163;28;20590;-78
2023/03/05 06:59:58;;;;;;;24.75;17.10;;;;;;;3.29;100.00;101297.47;5093654;28;20032;-78
2023/03/05 07:02:24;;;;;;;20.15;12.35;;;;;;;3.25;100.00;101301.97;5092125;28;20051;-78
2023/03/05 07:04:50;;;;;;;16.15;11.15;;;;;;;3.23;100.00;101301.22;5092947;28;20040;-78
2023/03/05 07:07:16;;;;;;;15.75;12.90;;;;;;;3.23;100.00;101296.00;5093483;28;20028;-77
2023/03/05 07:09:44;;;;;;;22.42;15.23;;;;;;;3.24;100.00;101292.47;5091651;28;20361;-78
2023/03/05 07:12:10;;;;;;;21.45;16.80;;;;;;;3.28;100.00;101293.97;5075476;28;20098;-78
2023/03/05 07:14:39;;;;;;;31.58;23.75;;;;;;;3.32;100.00;101290.31;5091407;28;20118;-78
2023/03/05 07:17:06;;;;;;;45.08;30.30;;;;;;;3.32;100.00;101287.72;5082673;28;20040;-77
2023/03/05 07:19:32;;;;;;;77.75;52.20;;;;;;;3.33;100.00;101284.16;5085270;28;20032;-78
2023/03/05 07:21:58;;;;;;;75.32;47.85;;;;;;;3.33;100.00;101278.94;5069373;28;20046;-77
2023/03/05 07:24:28;;;;;;;31.80;22.75;;;;;;;3.34;100.00;101269.34;5092049;28;20040;-78
2023/03/05 07:26:58;;;;;;;23.83;15.07;;;;;;;3.32;100.00;101274.63;5070643;28;20036;-78
2023/03/05 07:29:25;;;;;;;52.17;36.13;;;;;;;3.29;100.00;101263.47;5075006;28;20068;-78
2023/03/05 07:31:51;;;;;;;37.42;26.20;;;;;;;3.28;100.00;101260.00;5065609;28;20381;-78
2023/03/05 07:34:17;;;;;;;34.60;23.15;;;;;;;3.32;100.00;101260.72;5079785;28;20047;-77
2023/03/05 07:36:43;;;;;;;21.40;16.20;;;;;;;3.33;100.00;101251.94;5090142;28;20031;-77
2023/03/05 07:39:11;;;;;;;29.50;22.02;;;;;;;3.39;100.00;101261.25;5092235;28;20105;-77
2023/03/05 07:41:37;;;;;;;41.03;30.10;;;;;;;3.36;100.00;101262.25;5088265;28;20028;-78
2023/03/05 07:44:03;;;;;;;20.23;14.25;;;;;;;3.35;100.00;101250.09;5081436;28;20089;-78
2023/03/05 07:46:32;;;;;;;24.33;15.23;;;;;;;3.34;100.00;101246.63;5073439;28;20422;-78
2023/03/05 07:48:58;;;;;;;14.73;10.65;;;;;;;3.27;100.00;101247.03;5081926;28;20059;-78
2023/03/05 07:51:26;;;;;;;15.98;11.50;;;;;;;3.20;100.00;101247.34;5083140;28;20024;-78
2023/03/05 07:53:54;;;;;;;13.77;10.35;;;;;;;3.17;100.00;101247.50;5090274;28;20039;-78
2023/03/05 07:56:25;;;;;;;17.92;11.70;;;;;;;3.17;100.00;101237.03;5084769;28;20067;-78
2023/03/05 07:58:51;;;;;;;13.93;10.82;;;;;;;3.16;100.00;101235.34;5087006;28;20028;-77
2023/03/05 08:01:17;;;;;;;13.63;9.93;;;;;;;3.16;100.00;101229.28;5082619;28;20393;-78
2023/03/05 08:03:43;;;;;;;15.52;9.10;;;;;;;3.17;100.00;101233.59;5089390;28;20079;-78
2023/03/05 08:06:11;;;;;;;13.38;8.10;;;;;;;3.21;100.00;101237.75;5086296;28;20020;-77
2023/03/05 08:08:37;;;;;;;12.15;8.23;;;;;;;3.30;100.00;101234.66;5088888;28;20050;-78
2023/03/05 08:11:05;;;;;;;14.60;8.43;;;;;;;3.41;100.00;101236.72;5079727;28;20523;-77
2023/03/05 08:13:32;;;;;;;13.93;8.20;;;;;;;3.47;100.00;101231.19;5089620;28;20055;-78
2023/03/05 08:15:58;;;;;;;13.68;7.93;;;;;;;3.53;100.00;101232.66;5087649;28;20047;-78
2023/03/05 08:18:24;;;;;;;10.93;7.80;;;;;;;3.59;100.00;101232.34;5087595;28;20056;-78
2023/03/05 08:20:50;;;;;;;11.05;7.75;;;;;;;3.67;100.00;101223.25;5099835;28;20047;-77
2023/03/05 08:23:15;;;;;;;11.38;7.50;;;;;;;3.74;100.00;101229.00;5085078;28;20047;-77
2023/03/05 08:25:41;;;;;;;15.55;8.38;;;;;;;3.85;100.00;101218.84;5087534;28;20043;-78
2023/03/05 08:28:07;;;;;;;12.00;7.65;;;;;;;3.94;100.00;101220.09;5078584;28;20025;-78
2023/03/05 08:30:33;;;;;;;8.27;6.75;;;;;;;4.01;100.00;101220.63;5089559;28;20127;-77
2023/03/05 08:32:58;;;;;;;8.40;6.65;;;;;;;4.03;100.00;101217.00;5090568;28;20032;-78
2023/03/05 08:35:24;;;;;;;10.98;6.78;;;;;;;4.11;100.00;101216.56;5085701;28;20035;-78
2023/03/05 08:37:50;;;;;;;10.50;7.47;;;;;;;4.16;100.00;101217.19;5071991;28;20032;-77
2023/03/05 08:40:16;;;;;;;13.93;7.75;;;;;;;4.19;100.00;101218.78;5092324;28;20060;-78
2023/03/05 08:42:43;;;;;;;9.88;7.13;;;;;;;4.22;100.00;101202.94;5071620;28;20036;-78
2023/03/05 08:45:09;;;;;;;11.52;7.68;;;;;;;4.25;100.00;101207.16;5089431;28;20088;-78
2023/03/05 08:47:35;;;;;;;15.05;8.02;;;;;;;4.23;100.00;101207.22;5089665;28;20024;-78
2023/03/05 08:50:02;;;;;;;12.88;7.75;;;;;;;4.27;100.00;101198.28;5087244;28;20103;-77
2023/03/05 08:52:27;;;;;;;9.48;7.53;;;;;;;4.27;100.00;101186.97;5080223;28;20510;-78
2023/03/05 08:54:53;;;;;;;12.73;7.63;;;;;;;4.31;100.00;101185.88;5087926;28;20111;-78
2023/03/05 08:57:19;;;;;;;9.55;7.20;;;;;;;4.36;100.00;101189.09;5072048;28;20111;-78
2023/03/05 08:59:45;;;;;;;13.30;7.20;;;;;;;4.41;100.00;101187.03;5089047;28;20047;-78
2023/03/05 09:02:13;;;;;;;7.97;6.32;;;;;;;4.46;100.00;101181.53;5078859;28;20044;-78
2023/03/05 09:04:39;;;;;;;11.88;7.38;;;;;;;4.40;100.00;101179.25;5075273;28;20101;-78
2023/03/05 09:07:05;;;;;;;10.27;7.50;;;;;;;4.42;100.00;101180.03;5077741;28;20460;-78
2023/03/05 09:09:31;;;;;;;11.30;7.38;;;;;;;4.46;100.00;101169.31;5076703;28;20070;-78
2023/03/05 09:11:59;;;;;;;10.52;7.35;;;;;;;4.51;100.00;101166.41;5086671;28;20039;-78
2023/03/05 09:14:27;;;;;;;9.32;7.70;;;;;;;4.59;100.00;101172.06;5080614;28;20039;-78
2023/03/05 09:16:56;;;;;;;10.73;6.97;;;;;;;4.69;100.00;101172.41;5086918;28;20044;-78
2023/03/05 09:19:23;;;;;;;11.38;6.47;;;;;;;4.76;100.00;101172.06;5089843;28;20030;-78
2023/03/05 09:21:48;;;;;;;10.32;6.90;;;;;;;4.72;100.00;101168.75;5088248;28;20047;-78
2023/03/05 09:24:14;;;;;;;10.65;7.07;;;;;;;4.70;100.00;101166.22;5069400;28;20109;-77
2023/03/05 09:26:41;;;;;;;9.65;6.65;;;;;;;4.74;100.00;101161.66;5065052;28;20069;-78
2023/03/05 09:29:07;;;;;;;9.27;6.43;;;;;;;4.70;100.00;101170.59;5079360;28;20530;-78
2023/03/05 09:31:35;;;;;;;13.45;7.13;;;;;;;4.69;100.00;101164.53;5087680;28;20040;-78
2023/03/05 09:34:00;;;;;;;12.15;6.38;;;;;;;4.63;100.00;101153.56;5089892;28;20124;-78
2023/03/05 09:36:29;;;;;;;11.43;6.90;;;;;;;4.65;100.00;101151.72;5075196;28;20398;-78
2023/03/05 09:38:55;;;;;;;8.30;6.50;;;;;;;4.67;100.00;101149.84;5094821;28;20433;-78
2023/03/05 09:41:28;;;;;;;14.18;6.97;;;;;;;4.67;100.00;101144.59;5090743;28;20072;-78
2023/03/05 09:44:15;;;;;;;10.98;6.57;;;;;;;4.75;100.00;101131.06;5090041;28;20138;-78
2023/03/05 09:46:53;;;;;;;9.57;6.63;;;;;;;4.79;100.00;101125.56;5085670;28;20032;-78
2023/03/05 09:49:47;;;;;;;7.38;6.40;;;;;;;4.88;100.00;101131.19;5079013;28;20425;-78
2023/03/05 09:52:51;;;;;;;13.00;7.03;;;;;;;4.93;100.00;101129.16;5087800;28;20089;-78
2023/03/05 09:55:39;;;;;;;13.63;7.70;;;;;;;4.94;100.00;101126.44;5083826;28;20079;-78
2023/03/05 09:58:37;;;;;;;9.10;7.07;;;;;;;4.96;100.00;101111.47;5067748;28;20024;-78
2023/03/05 10:01:10;;;;;;;23.85;15.35;;;;;;;5.01;100.00;101113.81;5086729;28;20056;-78
2023/03/05 10:03:57;;;;;;;13.70;8.13;;;;;;;5.10;100.00;101107.19;5061323;28;20045;-78
2023/03/05 10:06:54;;;;;;;15.07;8.93;;;;;;;5.20;100.00;101103.09;5085565;28;20107;-78
2023/03/05 10:09:27;;;;;;;14.40;9.48;;;;;;;5.20;100.00;101097.84;5088023;28;20032;-78
2023/03/05 10:12:13;;;;;;;14.65;8.48;;;;;;;5.25;100.00;101097.56;5083445;28;20032;-78
2023/03/05 10:14:40;;;;;;;10.63;6.47;;;;;;;5.27;100.00;101085.19;5062603;28;20345;-78
2023/03/05 10:17:34;;;;;;;6.18;3.92;;;;;;;5.33;100.00;101089.22;5105775;28;20047;-78
2023/03/05 10:20:25;;;;;;;13.63;8.25;;;;;;;5.46;100.00;101084.06;5069607;28;20068;-78
2023/03/05 10:23:14;;;;;;;14.02;7.25;;;;;;;5.78;100.00;101083.81;5086004;28;20038;-78
2023/03/05 10:25:40;;;;;;;18.67;10.98;;;;;;;5.91;100.00;101083.06;5072361;28;20564;-78
2023/03/05 10:28:18;;;;;;;14.45;7.82;;;;;;;6.00;100.00;101076.38;5085255;28;20035;-78
2023/03/05 10:31:10;;;;;;;12.05;6.20;;;;;;;5.95;100.00;101088.03;5056144;28;20044;-78
2023/03/05 10:33:46;;;;;;;14.27;10.02;;;;;;;5.98;100.00;101080.88;5080131;28;20040;-78
2023/03/05 10:36:45;;;;;;;10.60;7.78;;;;;;;5.96;100.00;101070.47;5071991;28;20550;-78
2023/03/05 10:39:42;;;;;;;7.03;3.85;;;;;;;5.96;100.00;101068.69;5079915;28;20052;-79
2023/03/05 10:42:34;;;;;;;4.38;3.10;;;;;;;5.97;100.00;101066.94;5088234;28;20042;-78
2023/03/05 10:45:12;;;;;;;18.30;12.00;;;;;;;6.07;100.00;101064.56;5056987;28;20047;-78
2023/03/05 10:47:46;;;;;;;21.88;13.85;;;;;;;6.20;100.00;101060.22;5089314;28;20101;-78
2023/03/05 10:50:26;;;;;;;6.40;3.60;;;;;;;6.31;100.00;101059.50;5091127;28;20600;-78
2023/03/05 10:52:57;;;;;;;11.13;8.20;;;;;;;6.40;100.00;101057.22;5088987;28;20036;-78
2023/03/05 10:55:23;;;;;;;8.45;4.57;;;;;;;6.37;100.00;101060.03;5072364;28;20032;-78
2023/03/05 10:57:49;;;;;;;6.95;4.47;;;;;;;6.44;100.00;101063.94;5091578;28;20028;-78
2023/03/05 11:00:26;;;;;;;6.00;3.67;;;;;;;6.56;100.00;101064.91;5089724;28;20035;-78
2023/03/05 11:02:56;;;;;;;9.90;3.60;;;;;;;6.54;100.00;101067.66;5088731;28;20511;-78
2023/03/05 11:05:37;;;;;;;5.03;3.25;;;;;;;6.54;100.00;101059.78;5085752;28;20081;-78
2023/03/05 11:08:21;;;;;;;5.43;3.13;;;;;;;6.55;100.00;101063.22;5054138;28;20431;-79
2023/03/05 11:11:01;;;;;;;8.95;4.00;;;;;;;6.44;100.00;101066.56;5087510;28;20141;-78
2023/03/05 11:13:28;;;;;;;6.55;4.55;;;;;;;6.45;100.00;101058.59;5086591;28;20153;-78
2023/03/05 11:16:04;;;;;;;6.25;4.10;;;;;;;6.55;100.00;101064.06;5076627;28;20500;-78
2023/03/05 11:18:33;;;;;;;9.35;4.90;;;;;;;6.58;100.00;101058.63;5088382;28;20070;-78